createdAt,value
2018-05-07T00:04:24.598Z,11.28
2018-05-07T00:06:53.598Z,11.20
2018-05-07T00:09:26.202Z,11.14
2018-05-07T00:12:04.966Z,11.07
2018-05-07T00:20:16.778Z,11.54
2018-05-07T00:22:46.424Z,11.61
2018-05-07T00:25:17.072Z,10.98
2018-05-07T00:28:01.326Z,10.84
2018-05-07T00:30:30.993Z,10.75
2018-05-07T00:33:03.612Z,10.69
2018-05-07T00:35:36.453Z,10.64
2018-05-07T00:41:08.349Z,10.51
2018-05-07T00:43:44.744Z,10.43
2018-05-07T00:46:14.380Z,10.40
2018-05-07T00:48:43.269Z,10.38
2018-05-07T00:51:19.638Z,10.39
2018-05-07T00:53:49.650Z,10.36
2018-05-07T00:56:18.642Z,10.40
2018-05-07T00:58:47.860Z,10.40
2018-05-07T01:01:17.800Z,11.12
2018-05-07T01:03:47.242Z,10.58
2018-05-07T01:06:20.349Z,10.44
2018-05-07T01:08:50.354Z,10.35
2018-05-07T01:11:19.871Z,11.03
2018-05-07T01:13:48.747Z,10.46
2018-05-07T01:16:17.880Z,10.31
2018-05-07T01:18:46.631Z,10.23
2018-05-07T01:21:16.174Z,10.16
2018-05-07T01:23:44.863Z,10.09
2018-05-07T01:29:02.165Z,9.97
2018-05-07T01:31:30.924Z,9.93
2018-05-07T01:34:01.150Z,9.89
2018-05-07T01:36:29.760Z,9.85
2018-05-07T01:38:58.726Z,9.83
2018-05-07T01:41:27.400Z,9.79
2018-05-07T01:43:56.035Z,9.78
2018-05-07T01:46:24.633Z,9.73
2018-05-07T01:48:53.278Z,10.45
2018-05-07T01:51:21.964Z,9.91
2018-05-07T01:53:51.689Z,9.77
2018-05-07T01:56:22.246Z,9.69
2018-05-07T01:58:54.880Z,9.64
2018-05-07T02:04:12.149Z,9.56
2018-05-07T02:06:40.774Z,9.52
2018-05-07T02:09:09.441Z,10.27
2018-05-07T02:11:38.043Z,9.75
2018-05-07T02:14:06.667Z,9.63
2018-05-07T02:16:35.473Z,9.57
2018-05-07T02:19:04.083Z,9.55
2018-05-07T02:21:32.711Z,9.53
2018-05-07T02:24:01.371Z,9.50
2018-05-07T02:26:30.560Z,9.46
2018-05-07T02:28:59.617Z,9.42
2018-05-07T02:34:15.825Z,9.25
2018-05-07T02:36:45.374Z,9.18
2018-05-07T02:39:14.024Z,9.15
2018-05-07T02:41:42.713Z,9.07
2018-05-07T02:44:11.313Z,9.01
2018-05-07T02:46:39.945Z,8.93
2018-05-07T02:49:08.559Z,8.91
2018-05-07T02:51:37.181Z,8.89
2018-05-07T02:54:06.045Z,8.86
2018-05-07T02:56:34.670Z,8.84
2018-05-07T02:59:03.788Z,9.60
2018-05-07T03:01:32.422Z,9.10
2018-05-07T03:04:01.474Z,9.01
2018-05-07T03:06:32.520Z,8.96
2018-05-07T03:09:01.146Z,8.93
2018-05-07T03:11:29.777Z,8.90
2018-05-07T03:13:58.425Z,8.87
2018-05-07T03:16:27.427Z,8.85
2018-05-07T03:18:56.060Z,8.84
2018-05-07T03:21:24.684Z,8.81
2018-05-07T03:23:53.314Z,9.52
2018-05-07T03:26:22.230Z,9.00
2018-05-07T03:28:50.893Z,8.87
2018-05-07T03:31:20.027Z,8.81
2018-05-07T03:33:48.866Z,8.75
2018-05-07T03:36:17.875Z,8.71
2018-05-07T03:38:47.010Z,8.67
2018-05-07T03:41:16.390Z,8.64
2018-05-07T03:43:45.159Z,8.64
2018-05-07T03:46:15.371Z,8.61
2018-05-07T03:48:44.326Z,8.61
2018-05-07T03:51:13.219Z,8.62
2018-05-07T03:53:42.642Z,8.62
2018-05-07T03:56:11.622Z,8.63
2018-05-07T03:58:40.866Z,8.62
2018-05-07T04:01:09.819Z,8.62
2018-05-07T04:03:39.186Z,8.62
2018-05-07T04:06:07.787Z,8.57
2018-05-07T04:08:36.396Z,9.34
2018-05-07T04:11:05.056Z,8.74
2018-05-07T04:13:33.706Z,8.60
2018-05-07T04:16:02.655Z,8.54
2018-05-07T04:19:08.383Z,8.52
2018-05-07T04:21:37.019Z,8.48
2018-05-07T04:24:23.856Z,8.54
2018-05-07T04:26:54.673Z,8.62
2018-05-07T04:32:11.356Z,8.76
2018-05-07T04:34:40.290Z,9.65
2018-05-07T04:37:09.269Z,9.24
2018-05-07T04:39:39.097Z,9.23
2018-05-07T04:44:55.657Z,9.42
2018-05-07T04:47:24.478Z,9.53
2018-05-07T04:52:41.242Z,9.97
2018-05-07T04:55:12.713Z,10.00
2018-05-07T04:57:46.678Z,10.05
2018-05-07T05:00:16.837Z,10.15
2018-05-07T05:02:45.993Z,10.25
2018-05-07T05:05:16.341Z,10.33
2018-05-07T05:07:45.560Z,10.42
2018-05-07T05:10:14.482Z,11.19
2018-05-07T05:12:44.143Z,11.54
2018-05-07T05:15:13.228Z,11.13
2018-05-07T05:17:41.854Z,11.12
2018-05-07T05:20:14.493Z,11.15
2018-05-07T05:22:43.175Z,11.19
2018-05-07T05:25:12.716Z,11.23
2018-05-07T05:27:41.351Z,11.29
2018-05-07T05:30:09.967Z,11.35
2018-05-07T05:32:42.532Z,11.43
2018-05-07T05:35:11.176Z,11.53
2018-05-07T05:37:39.809Z,11.70
2018-05-07T05:40:08.474Z,11.88
2018-05-07T05:42:37.082Z,12.08
2018-05-07T05:45:05.988Z,12.28
2018-05-07T05:47:34.608Z,12.47
2018-05-07T05:50:18.655Z,12.63
2018-05-07T05:52:47.233Z,12.79
2018-05-07T05:55:15.877Z,12.94
2018-05-07T05:57:45.459Z,13.10
2018-05-07T06:00:17.284Z,13.24
2018-05-07T06:02:47.955Z,13.40
2018-05-07T06:05:16.587Z,13.58
2018-05-07T06:07:46.521Z,13.74
2018-05-07T06:10:15.627Z,13.90
2018-05-07T06:12:45.281Z,14.10
2018-05-07T06:15:15.289Z,14.31
2018-05-07T06:17:44.121Z,14.49
2018-05-07T06:20:13.556Z,14.72
2018-05-07T06:22:44.828Z,14.94
2018-05-07T06:25:13.715Z,15.14
2018-05-07T06:27:42.820Z,15.36
2018-05-07T06:30:11.743Z,15.56
2018-05-07T06:32:40.858Z,15.77
2018-05-07T06:35:10.232Z,16.01
2018-05-07T06:37:44.324Z,16.28
2018-05-07T06:40:35.044Z,16.53
2018-05-07T06:43:09.082Z,16.81
2018-05-07T06:45:43.661Z,17.82
2018-05-07T06:48:18.440Z,17.50
2018-05-07T06:50:53.359Z,17.58
2018-05-07T06:53:27.312Z,17.73
2018-05-07T06:56:02.445Z,17.92
2018-05-07T06:58:37.244Z,18.10
2018-05-07T07:01:12.297Z,18.28
2018-05-07T07:03:46.363Z,18.42
2018-05-07T07:06:21.291Z,18.55
2018-05-07T07:08:55.608Z,18.77
2018-05-07T07:22:53.282Z,19.47
2018-05-07T07:31:00.814Z,20.10
2018-05-07T07:33:48.304Z,20.31
2018-05-07T07:36:16.962Z,20.44
2018-05-07T07:38:45.538Z,20.64
2018-05-07T07:41:14.173Z,20.75
2018-05-07T07:43:46.909Z,20.85
2018-05-07T07:46:15.557Z,20.99
2018-05-07T07:48:46.230Z,21.17
2018-05-07T07:51:14.785Z,21.34
2018-05-07T07:53:44.431Z,22.53
2018-05-07T07:56:12.969Z,21.84
2018-05-07T07:58:42.008Z,22.83
2018-05-07T08:01:18.511Z,22.04
2018-05-07T08:03:47.112Z,21.94
2018-05-07T08:06:15.751Z,21.92
2018-05-07T08:08:44.379Z,21.83
2018-05-07T08:13:43.030Z,23.00
2018-05-07T08:16:14.012Z,22.30
2018-05-07T08:18:43.628Z,22.29
2018-05-07T08:21:12.294Z,22.38
2018-05-07T08:23:41.801Z,22.42
2018-05-07T08:28:58.027Z,22.92
2018-05-07T08:31:26.678Z,22.83
2018-05-07T08:33:55.801Z,22.89
2018-05-07T08:36:24.455Z,22.83
2018-05-07T08:38:53.179Z,22.87
2018-05-07T08:41:23.700Z,22.87
2018-05-07T08:43:54.357Z,22.80
2018-05-07T08:46:24.933Z,22.75
2018-05-07T08:51:57.020Z,22.84
2018-05-07T08:57:22.133Z,23.00
2018-05-07T08:59:53.009Z,23.06
2018-05-07T09:02:21.959Z,23.15
2018-05-07T09:04:50.955Z,23.30
2018-05-07T09:07:19.800Z,23.45
2018-05-07T09:09:48.613Z,23.51
2018-05-07T09:12:17.459Z,23.50
2018-05-07T09:14:46.112Z,23.68
2018-05-07T09:17:15.860Z,23.77
2018-05-07T09:19:44.511Z,23.88
2018-05-07T09:22:13.137Z,25.27
2018-05-07T09:24:42.312Z,24.47
2018-05-07T09:27:10.843Z,24.54
2018-05-07T09:29:39.949Z,24.62
2018-05-07T09:32:08.901Z,24.64
2018-05-07T09:34:38.845Z,24.73
2018-05-07T09:37:07.766Z,26.01
2018-05-07T09:39:36.964Z,25.10
2018-05-07T09:42:06.378Z,24.85
2018-05-07T09:44:36.847Z,24.94
2018-05-07T09:47:05.812Z,25.03
2018-05-07T09:49:35.085Z,25.14
2018-05-07T09:52:03.618Z,25.34
2018-05-07T09:54:32.279Z,25.51
2018-05-07T09:57:00.909Z,25.62
2018-05-07T09:59:30.222Z,26.99
2018-05-07T10:01:59.509Z,26.19
2018-05-07T10:04:30.703Z,26.05
2018-05-07T10:06:59.509Z,27.24
2018-05-07T10:09:28.605Z,26.29
2018-05-07T10:11:57.256Z,26.15
2018-05-07T10:14:27.013Z,27.34
2018-05-07T10:16:56.362Z,26.39
2018-05-07T10:19:27.501Z,26.28
2018-05-07T10:21:56.507Z,26.35
2018-05-07T10:24:25.444Z,26.32
2018-05-07T10:26:58.497Z,26.22
2018-05-07T10:29:29.023Z,26.13
2018-05-07T10:31:58.557Z,26.23
2018-05-07T10:34:34.821Z,26.29
2018-05-07T10:37:04.520Z,27.63
2018-05-07T10:39:33.802Z,26.72
2018-05-07T10:42:02.881Z,26.71
2018-05-07T10:44:31.675Z,26.78
2018-05-07T10:47:03.159Z,26.75
2018-05-07T10:49:31.845Z,26.78
2018-05-07T10:52:01.163Z,26.75
2018-05-07T10:54:30.071Z,26.75
2018-05-07T10:56:59.156Z,26.76
2018-05-07T10:59:27.849Z,26.91
2018-05-07T11:01:59.915Z,26.99
2018-05-07T11:04:29.106Z,27.13
2018-05-07T11:06:59.192Z,27.26
2018-05-07T11:09:29.642Z,27.33
2018-05-07T11:11:58.429Z,27.39
2018-05-07T11:14:27.271Z,27.41
2018-05-07T11:16:56.294Z,27.51
2018-05-07T11:19:25.625Z,27.52
2018-05-07T11:21:55.124Z,27.53
2018-05-07T11:24:34.775Z,27.50
2018-05-07T11:27:06.968Z,27.40
2018-05-07T11:29:35.939Z,27.41
2018-05-07T11:32:04.799Z,27.23
2018-05-07T11:34:36.898Z,27.15
2018-05-07T11:37:09.435Z,27.26
2018-05-07T11:39:39.279Z,27.39
2018-05-07T11:42:09.482Z,27.53
2018-05-07T11:44:39.162Z,27.65
2018-05-07T11:47:08.778Z,27.47
2018-05-07T11:49:40.205Z,27.60
2018-05-07T11:52:09.795Z,27.65
2018-05-07T11:54:39.071Z,27.73
2018-05-07T11:57:08.012Z,29.11
2018-05-07T11:59:41.688Z,28.25
2018-05-07T12:02:11.646Z,28.14
2018-05-07T12:04:43.188Z,27.76
2018-05-07T12:07:12.435Z,27.60
2018-05-07T12:09:41.489Z,27.67
2018-05-07T12:12:10.173Z,27.62
2018-05-07T12:14:39.195Z,27.58
2018-05-07T12:17:09.322Z,27.63
2018-05-07T12:19:39.307Z,28.91
2018-05-07T12:22:22.027Z,29.08
2018-05-07T12:24:51.366Z,29.35
2018-05-07T12:27:36.693Z,29.49
2018-05-07T12:30:09.079Z,28.51
2018-05-07T12:35:30.486Z,28.27
2018-05-07T12:38:05.615Z,28.26
2018-05-07T12:40:35.241Z,28.30
2018-05-07T12:43:07.481Z,28.36
2018-05-07T12:45:39.356Z,28.19
2018-05-07T12:48:09.069Z,29.34
2018-05-07T12:50:42.502Z,28.45
2018-05-07T12:53:13.497Z,28.38
2018-05-07T12:55:46.452Z,28.44
2018-05-07T13:01:05.764Z,28.26
2018-05-07T13:03:38.958Z,28.33
2018-05-07T13:06:07.883Z,28.32
2018-05-07T13:08:37.607Z,28.34
2018-05-07T13:11:18.333Z,28.33
2018-05-07T13:13:47.364Z,28.30
2018-05-07T13:19:06.426Z,28.38
2018-05-07T13:21:38.662Z,28.54
2018-05-07T13:24:07.587Z,28.53
2018-05-07T13:26:36.503Z,28.62
2018-05-07T13:29:05.701Z,28.61
2018-05-07T13:31:36.203Z,28.62
2018-05-07T13:34:04.949Z,28.73
2018-05-07T13:36:36.023Z,28.74
2018-05-07T13:39:04.626Z,28.86
2018-05-07T13:41:36.737Z,29.02
2018-05-07T13:44:05.339Z,29.25
2018-05-07T13:46:34.015Z,30.45
2018-05-07T13:49:02.700Z,29.48
2018-05-07T13:51:31.396Z,29.37
2018-05-07T13:54:00.047Z,29.34
2018-05-07T13:56:29.031Z,29.40
2018-05-07T13:58:59.797Z,30.55
2018-05-07T14:01:28.412Z,29.90
2018-05-07T14:03:57.200Z,29.94
2018-05-07T14:06:26.775Z,29.75
2018-05-07T14:08:55.835Z,29.65
2018-05-07T14:11:24.450Z,29.66
2018-05-07T14:13:53.093Z,29.57
2018-05-07T14:16:21.789Z,30.42
2018-05-07T14:18:51.414Z,29.56
2018-05-07T14:21:20.473Z,29.41
2018-05-07T14:23:49.261Z,29.42
2018-05-07T14:26:21.635Z,29.38
2018-05-07T14:28:53.478Z,29.34
2018-05-07T14:31:24.039Z,29.48
2018-05-07T14:33:53.318Z,30.61
2018-05-07T14:36:25.812Z,29.71
2018-05-07T14:38:59.217Z,29.61
2018-05-07T14:44:24.283Z,29.50
2018-05-07T14:46:53.526Z,30.51
2018-05-07T14:49:22.425Z,29.67
2018-05-07T14:52:05.214Z,29.55
2018-05-07T14:54:41.356Z,29.55
2018-05-07T15:00:06.674Z,29.55
2018-05-07T15:02:36.634Z,30.22
2018-05-07T15:05:08.213Z,31.11
2018-05-07T15:07:47.064Z,31.60
2018-05-07T15:10:15.692Z,31.99
2018-05-07T15:15:35.146Z,34.20
2018-05-07T15:18:12.525Z,33.31
2018-05-07T15:23:47.004Z,34.26
2018-05-07T15:29:06.426Z,34.46
2018-05-07T15:31:35.501Z,34.55
2018-05-07T15:34:05.656Z,34.77
2018-05-07T15:36:37.131Z,35.12
2018-05-07T15:39:06.416Z,36.84
2018-05-07T15:41:39.656Z,35.95
2018-05-07T15:44:11.899Z,35.38
2018-05-07T15:46:48.333Z,35.43
2018-05-07T15:49:25.093Z,35.21
2018-05-07T15:51:53.702Z,35.21
2018-05-07T15:54:22.375Z,37.02
2018-05-07T15:56:52.690Z,37.25
2018-05-07T15:59:27.417Z,36.33
2018-05-07T16:01:58.157Z,35.89
2018-05-07T16:04:29.607Z,35.64
2018-05-07T16:06:58.790Z,35.27
2018-05-07T16:09:29.220Z,35.41
2018-05-07T16:11:58.390Z,35.49
2018-05-07T16:14:27.973Z,35.22
2018-05-07T16:16:57.931Z,34.91
2018-05-07T16:19:26.913Z,34.78
2018-05-07T16:21:55.936Z,34.95
2018-05-07T16:24:25.244Z,34.88
2018-05-07T16:26:56.733Z,34.93
2018-05-07T16:29:29.149Z,34.76
2018-05-07T16:31:59.837Z,34.77
2018-05-07T16:34:28.614Z,34.83
2018-05-07T16:36:57.414Z,34.96
2018-05-07T16:39:26.571Z,36.93
2018-05-07T16:41:56.752Z,35.26
2018-05-07T16:44:25.507Z,36.76
2018-05-07T16:46:54.114Z,35.32
2018-05-07T16:49:22.747Z,36.74
2018-05-07T16:51:51.393Z,35.67
2018-05-07T16:54:36.323Z,35.65
2018-05-07T16:57:06.305Z,35.68
2018-05-07T16:59:34.958Z,35.83
2018-05-07T17:02:03.559Z,36.00
2018-05-07T17:04:32.511Z,35.98
2018-05-07T17:07:01.720Z,35.90
2018-05-07T17:09:30.343Z,38.02
2018-05-07T17:12:00.051Z,38.04
2018-05-07T17:14:28.676Z,36.25
2018-05-07T17:16:59.320Z,35.80
2018-05-07T17:19:27.923Z,37.75
2018-05-07T17:21:56.561Z,36.17
2018-05-07T17:24:25.217Z,35.82
2018-05-07T17:26:53.851Z,35.35
2018-05-07T17:29:22.483Z,34.91
2018-05-07T17:31:58.174Z,37.06
2018-05-07T17:34:27.667Z,35.32
2018-05-07T17:36:56.315Z,34.78
2018-05-07T17:39:25.462Z,34.62
2018-05-07T17:41:54.395Z,36.54
2018-05-07T17:44:59.850Z,34.41
2018-05-07T17:50:53.567Z,31.29
2018-05-07T17:53:30.397Z,30.24
2018-05-07T17:55:59.084Z,29.29
2018-05-07T17:58:35.042Z,30.16
2018-05-07T18:01:03.815Z,28.21
2018-05-07T18:03:35.998Z,27.32
2018-05-07T18:06:05.076Z,28.13
2018-05-07T18:08:36.885Z,26.54
2018-05-07T18:11:10.747Z,25.88
2018-05-07T18:13:41.287Z,25.45
2018-05-07T18:16:11.780Z,25.15
2018-05-07T18:18:40.486Z,26.09
2018-05-07T18:21:09.144Z,24.83
2018-05-07T18:23:38.705Z,24.35
2018-05-07T18:26:10.497Z,23.92
2018-05-07T18:28:46.867Z,23.61
2018-05-07T18:31:16.083Z,23.20
2018-05-07T18:33:44.848Z,22.86
2018-05-07T18:36:15.711Z,22.49
2018-05-07T18:38:46.338Z,22.24
2018-05-07T18:41:15.419Z,22.00
2018-05-07T18:43:44.085Z,21.74
2018-05-07T18:46:16.390Z,21.56
2018-05-07T18:48:50.056Z,21.34
2018-05-07T18:51:19.118Z,21.20
2018-05-07T18:53:48.284Z,20.97
2018-05-07T18:56:27.351Z,20.80
2018-05-07T18:58:59.288Z,20.64
2018-05-07T19:01:28.703Z,20.45
2018-05-07T19:04:01.159Z,20.28
2018-05-07T19:06:31.804Z,20.10
2018-05-07T19:09:06.199Z,19.97
2018-05-07T19:11:35.477Z,19.87
2018-05-07T19:14:04.827Z,19.70
2018-05-07T19:22:18.541Z,19.16
2018-05-07T19:25:03.101Z,20.05
2018-05-07T19:30:20.611Z,19.10
2018-05-07T19:32:49.295Z,18.99
2018-05-07T19:35:17.960Z,18.90
2018-05-07T19:37:46.732Z,18.82
2018-05-07T19:40:15.541Z,18.76
2018-05-07T19:45:41.693Z,18.54
2018-05-07T19:48:12.360Z,18.43
2018-05-07T19:50:42.034Z,18.38
2018-05-07T19:53:26.482Z,18.30
2018-05-07T19:55:55.213Z,18.18
2018-05-07T19:58:24.082Z,18.94
2018-05-07T20:00:55.130Z,18.30
2018-05-07T20:03:39.253Z,18.97
2018-05-07T20:06:11.545Z,18.27
2018-05-07T20:08:46.106Z,18.08
2018-05-07T20:11:23.127Z,17.88
2018-05-07T20:16:39.649Z,17.51
2018-05-07T20:19:16.416Z,17.31
2018-05-07T20:21:46.108Z,17.12
2018-05-07T20:27:04.599Z,17.22
2018-05-07T20:29:37.971Z,17.10
2018-05-07T20:32:07.133Z,17.03
2018-05-07T20:34:38.266Z,16.98
2018-05-07T20:37:06.967Z,16.93
2018-05-07T20:42:27.435Z,17.11
2018-05-07T20:53:19.637Z,16.84
2018-05-07T20:55:49.087Z,16.72
2018-05-07T20:58:27.943Z,17.40
2018-05-07T21:00:56.663Z,16.75
2018-05-07T21:03:26.155Z,16.60
2018-05-07T21:06:02.882Z,16.53
2018-05-07T21:08:31.927Z,16.49
2018-05-07T21:11:01.046Z,16.42
2018-05-07T21:13:31.760Z,16.31
2018-05-07T21:16:00.793Z,17.02
2018-05-07T21:18:29.874Z,16.42
2018-05-07T21:20:58.676Z,16.26
2018-05-07T21:23:27.756Z,16.94
2018-05-07T21:25:56.753Z,16.31
2018-05-07T21:28:25.865Z,16.13
2018-05-07T21:30:57.647Z,16.78
2018-05-07T21:33:26.787Z,16.13
2018-05-07T21:35:55.906Z,16.74
2018-05-07T21:38:25.687Z,16.80
2018-05-07T21:40:54.668Z,16.10
2018-05-07T21:43:23.585Z,15.87
2018-05-07T21:45:52.697Z,15.70
2018-05-07T21:48:21.530Z,15.50
2018-05-07T21:50:50.436Z,15.24
2018-05-07T21:53:19.800Z,15.88
2018-05-07T21:55:48.769Z,15.12
2018-05-07T21:58:17.777Z,14.90
2018-05-07T22:00:46.794Z,14.77
2018-05-07T22:03:15.780Z,14.67
2018-05-07T22:05:44.675Z,14.59
2018-05-07T22:08:15.939Z,14.52
2018-05-07T22:10:45.028Z,14.45
2018-05-07T22:13:13.945Z,14.39
2018-05-07T22:15:42.491Z,14.34
2018-05-07T22:18:11.361Z,14.31
2018-05-07T22:20:42.600Z,14.30
2018-05-07T22:23:11.227Z,14.26
2018-05-07T22:25:39.887Z,14.23
2018-05-07T22:28:08.484Z,14.21
2018-05-07T22:30:37.732Z,14.21
2018-05-07T22:33:06.743Z,14.20
2018-05-07T22:35:35.976Z,14.97
2018-05-07T22:38:04.704Z,15.17
2018-05-07T22:40:34.454Z,14.62
2018-05-07T22:43:03.433Z,14.52
2018-05-07T22:45:33.419Z,14.47
2018-05-07T22:48:04.869Z,15.18
2018-05-07T22:50:33.633Z,14.65
2018-05-07T22:53:02.627Z,14.52
2018-05-07T22:55:31.473Z,14.45
2018-05-07T22:58:08.667Z,14.38
2018-05-07T23:00:37.497Z,14.30
2018-05-07T23:03:06.573Z,14.24
2018-05-07T23:05:35.562Z,14.19
2018-05-07T23:08:04.569Z,14.14
2018-05-07T23:10:37.812Z,14.10
2018-05-07T23:13:06.467Z,14.05
2018-05-07T23:15:35.194Z,14.75
2018-05-07T23:18:03.835Z,14.22
2018-05-07T23:20:33.085Z,14.09
2018-05-07T23:23:01.751Z,14.02
2018-05-07T23:25:30.503Z,13.96
2018-05-07T23:28:00.268Z,13.89
2018-05-07T23:30:28.873Z,13.82
2018-05-07T23:32:57.529Z,13.74
2018-05-07T23:35:26.153Z,13.67
2018-05-07T23:37:54.824Z,13.59
2018-05-07T23:40:23.451Z,13.52
2018-05-07T23:42:52.108Z,13.46
2018-05-07T23:45:20.719Z,13.42
2018-05-07T23:47:50.283Z,13.38
2018-05-07T23:50:19.520Z,13.35
2018-05-07T23:52:48.180Z,13.28
2018-05-07T23:55:16.871Z,13.22
2018-05-07T23:57:45.531Z,13.15
